sensor_id;sensor_type;location;lat;lon;timestamp;P1;durP1;ratioP1;P2;durP2;ratioP2
7795;SDS011;3942;51.518;6.912;2022-12-07T00:02:34;24.88;;;15.88;;
7795;SDS011;3942;51.518;6.912;2022-12-07T00:07:37;28.33;;;17.23;;
7795;SDS011;3942;51.518;6.912;2022-12-07T00:12:39;29.48;;;16.83;;
7795;SDS011;3942;51.518;6.912;2022-12-07T00:17:41;30.38;;;17.38;;
7795;SDS011;3942;51.518;6.912;2022-12-07T00:22:45;28.92;;;17.02;;
7795;SDS011;3942;51.518;6.912;2022-12-07T00:27:47;29.25;;;16.58;;
7795;SDS011;3942;51.518;6.912;2022-12-07T00:32:49;40.33;;;18.92;;
7795;SDS011;3942;51.518;6.912;2022-12-07T00:37:52;33.45;;;19.83;;
7795;SDS011;3942;51.518;6.912;2022-12-07T00:42:54;33.92;;;21.73;;
7795;SDS011;3942;51.518;6.912;2022-12-07T00:47:57;41.85;;;23.45;;
7795;SDS011;3942;51.518;6.912;2022-12-07T00:53:00;40.15;;;22.13;;
7795;SDS011;3942;51.518;6.912;2022-12-07T00:58:03;39.53;;;21.85;;
7795;SDS011;3942;51.518;6.912;2022-12-07T01:03:06;35.65;;;21.58;;
7795;SDS011;3942;51.518;6.912;2022-12-07T01:08:09;39.20;;;22.02;;
7795;SDS011;3942;51.518;6.912;2022-12-07T01:13:11;33.80;;;21.27;;
7795;SDS011;3942;51.518;6.912;2022-12-07T01:18:13;36.78;;;22.33;;
7795;SDS011;3942;51.518;6.912;2022-12-07T01:23:17;39.22;;;23.15;;
7795;SDS011;3942;51.518;6.912;2022-12-07T01:28:18;39.55;;;22.30;;
7795;SDS011;3942;51.518;6.912;2022-12-07T01:33:21;37.90;;;22.92;;
7795;SDS011;3942;51.518;6.912;2022-12-07T01:38:24;41.05;;;21.90;;
7795;SDS011;3942;51.518;6.912;2022-12-07T01:43:27;37.72;;;21.67;;
7795;SDS011;3942;51.518;6.912;2022-12-07T01:48:30;40.55;;;23.23;;
7795;SDS011;3942;51.518;6.912;2022-12-07T01:53:35;37.22;;;23.35;;
7795;SDS011;3942;51.518;6.912;2022-12-07T01:58:41;39.85;;;22.25;;
7795;SDS011;3942;51.518;6.912;2022-12-07T02:03:43;38.55;;;21.10;;
7795;SDS011;3942;51.518;6.912;2022-12-07T02:08:47;44.55;;;24.52;;
7795;SDS011;3942;51.518;6.912;2022-12-07T02:13:50;37.30;;;22.80;;
7795;SDS011;3942;51.518;6.912;2022-12-07T02:18:56;38.67;;;21.42;;
7795;SDS011;3942;51.518;6.912;2022-12-07T02:24:12;37.75;;;21.35;;
7795;SDS011;3942;51.518;6.912;2022-12-07T02:29:20;38.33;;;21.37;;
7795;SDS011;3942;51.518;6.912;2022-12-07T02:34:28;32.80;;;21.00;;
7795;SDS011;3942;51.518;6.912;2022-12-07T02:39:32;33.72;;;21.55;;
7795;SDS011;3942;51.518;6.912;2022-12-07T02:44:39;36.75;;;21.92;;
7795;SDS011;3942;51.518;6.912;2022-12-07T02:49:42;34.47;;;20.77;;
7795;SDS011;3942;51.518;6.912;2022-12-07T02:54:44;34.10;;;20.35;;
7795;SDS011;3942;51.518;6.912;2022-12-07T02:59:50;35.22;;;21.23;;
7795;SDS011;3942;51.518;6.912;2022-12-07T03:05:05;42.40;;;24.52;;
7795;SDS011;3942;51.518;6.912;2022-12-07T03:10:19;35.95;;;21.27;;
7795;SDS011;3942;51.518;6.912;2022-12-07T03:15:27;37.25;;;21.25;;
7795;SDS011;3942;51.518;6.912;2022-12-07T03:20:31;33.92;;;20.15;;
7795;SDS011;3942;51.518;6.912;2022-12-07T03:25:34;37.08;;;21.63;;
7795;SDS011;3942;51.518;6.912;2022-12-07T03:30:42;42.90;;;22.05;;
7795;SDS011;3942;51.518;6.912;2022-12-07T03:35:48;42.42;;;21.88;;
7795;SDS011;3942;51.518;6.912;2022-12-07T03:40:54;36.85;;;21.73;;
7795;SDS011;3942;51.518;6.912;2022-12-07T03:46:01;39.80;;;21.08;;
7795;SDS011;3942;51.518;6.912;2022-12-07T03:51:13;37.33;;;22.20;;
7795;SDS011;3942;51.518;6.912;2022-12-07T03:56:17;38.60;;;20.83;;
7795;SDS011;3942;51.518;6.912;2022-12-07T04:01:22;34.60;;;20.75;;
7795;SDS011;3942;51.518;6.912;2022-12-07T04:06:24;43.13;;;25.13;;
7795;SDS011;3942;51.518;6.912;2022-12-07T04:11:26;38.92;;;19.88;;
7795;SDS011;3942;51.518;6.912;2022-12-07T04:16:29;35.83;;;19.75;;
7795;SDS011;3942;51.518;6.912;2022-12-07T04:21:31;33.95;;;18.58;;
7795;SDS011;3942;51.518;6.912;2022-12-07T04:26:34;35.28;;;19.50;;
7795;SDS011;3942;51.518;6.912;2022-12-07T04:31:37;28.75;;;18.25;;
7795;SDS011;3942;51.518;6.912;2022-12-07T04:36:40;33.95;;;19.90;;
7795;SDS011;3942;51.518;6.912;2022-12-07T04:41:42;33.42;;;18.35;;
7795;SDS011;3942;51.518;6.912;2022-12-07T04:46:45;35.15;;;19.48;;
7795;SDS011;3942;51.518;6.912;2022-12-07T04:51:48;36.42;;;19.30;;
7795;SDS011;3942;51.518;6.912;2022-12-07T04:56:50;35.55;;;19.15;;
7795;SDS011;3942;51.518;6.912;2022-12-07T05:01:54;35.88;;;18.95;;
7795;SDS011;3942;51.518;6.912;2022-12-07T05:06:56;34.50;;;18.70;;
7795;SDS011;3942;51.518;6.912;2022-12-07T05:11:58;51.90;;;26.60;;
7795;SDS011;3942;51.518;6.912;2022-12-07T05:17:01;34.90;;;20.27;;
7795;SDS011;3942;51.518;6.912;2022-12-07T05:22:04;39.75;;;22.10;;
7795;SDS011;3942;51.518;6.912;2022-12-07T05:27:06;36.42;;;19.38;;
7795;SDS011;3942;51.518;6.912;2022-12-07T05:32:09;35.78;;;20.40;;
7795;SDS011;3942;51.518;6.912;2022-12-07T05:37:11;29.15;;;17.45;;
7795;SDS011;3942;51.518;6.912;2022-12-07T05:42:13;35.20;;;18.95;;
7795;SDS011;3942;51.518;6.912;2022-12-07T05:47:17;33.92;;;17.65;;
7795;SDS011;3942;51.518;6.912;2022-12-07T05:52:20;34.53;;;19.48;;
7795;SDS011;3942;51.518;6.912;2022-12-07T05:57:22;37.08;;;19.45;;
7795;SDS011;3942;51.518;6.912;2022-12-07T06:02:25;33.85;;;17.90;;
7795;SDS011;3942;51.518;6.912;2022-12-07T06:07:27;31.48;;;18.27;;
7795;SDS011;3942;51.518;6.912;2022-12-07T06:12:29;41.97;;;20.50;;
7795;SDS011;3942;51.518;6.912;2022-12-07T06:17:36;32.55;;;17.80;;
7795;SDS011;3942;51.518;6.912;2022-12-07T06:22:38;35.13;;;17.65;;
7795;SDS011;3942;51.518;6.912;2022-12-07T06:27:40;35.67;;;17.23;;
7795;SDS011;3942;51.518;6.912;2022-12-07T06:32:43;35.38;;;19.88;;
7795;SDS011;3942;51.518;6.912;2022-12-07T06:37:45;32.72;;;16.20;;
7795;SDS011;3942;51.518;6.912;2022-12-07T06:42:48;33.45;;;17.00;;
7795;SDS011;3942;51.518;6.912;2022-12-07T06:47:51;31.77;;;14.20;;
7795;SDS011;3942;51.518;6.912;2022-12-07T06:52:53;33.78;;;15.65;;
7795;SDS011;3942;51.518;6.912;2022-12-07T06:57:55;25.88;;;14.65;;
7795;SDS011;3942;51.518;6.912;2022-12-07T07:02:59;26.23;;;13.68;;
7795;SDS011;3942;51.518;6.912;2022-12-07T07:08:01;28.10;;;13.98;;
7795;SDS011;3942;51.518;6.912;2022-12-07T07:13:03;26.63;;;13.25;;
7795;SDS011;3942;51.518;6.912;2022-12-07T07:18:07;26.63;;;13.52;;
7795;SDS011;3942;51.518;6.912;2022-12-07T07:23:09;29.27;;;14.88;;
7795;SDS011;3942;51.518;6.912;2022-12-07T07:28:11;31.27;;;14.85;;
7795;SDS011;3942;51.518;6.912;2022-12-07T07:33:15;25.08;;;14.98;;
7795;SDS011;3942;51.518;6.912;2022-12-07T07:38:17;33.40;;;17.10;;
7795;SDS011;3942;51.518;6.912;2022-12-07T07:43:19;25.30;;;13.15;;
7795;SDS011;3942;51.518;6.912;2022-12-07T07:48:22;29.15;;;15.30;;
7795;SDS011;3942;51.518;6.912;2022-12-07T07:53:25;29.92;;;15.30;;
7795;SDS011;3942;51.518;6.912;2022-12-07T07:58:27;28.35;;;13.50;;
7795;SDS011;3942;51.518;6.912;2022-12-07T08:03:31;20.90;;;12.55;;
7795;SDS011;3942;51.518;6.912;2022-12-07T08:08:32;20.90;;;12.93;;
7795;SDS011;3942;51.518;6.912;2022-12-07T08:13:35;24.98;;;12.32;;
7795;SDS011;3942;51.518;6.912;2022-12-07T08:18:39;24.20;;;11.20;;
7795;SDS011;3942;51.518;6.912;2022-12-07T08:23:41;23.48;;;11.63;;
7795;SDS011;3942;51.518;6.912;2022-12-07T08:28:44;21.75;;;11.15;;
7795;SDS011;3942;51.518;6.912;2022-12-07T08:33:47;29.02;;;13.38;;
7795;SDS011;3942;51.518;6.912;2022-12-07T08:38:49;22.20;;;11.30;;
7795;SDS011;3942;51.518;6.912;2022-12-07T08:43:51;36.67;;;18.13;;
7795;SDS011;3942;51.518;6.912;2022-12-07T08:48:56;20.48;;;10.63;;
7795;SDS011;3942;51.518;6.912;2022-12-07T08:54:01;18.40;;;10.45;;
7795;SDS011;3942;51.518;6.912;2022-12-07T08:59:06;18.88;;;9.23;;
7795;SDS011;3942;51.518;6.912;2022-12-07T09:04:10;15.20;;;8.70;;
7795;SDS011;3942;51.518;6.912;2022-12-07T09:09:12;21.58;;;12.52;;
7795;SDS011;3942;51.518;6.912;2022-12-07T09:14:15;16.23;;;8.48;;
7795;SDS011;3942;51.518;6.912;2022-12-07T09:19:18;23.45;;;11.68;;
7795;SDS011;3942;51.518;6.912;2022-12-07T09:24:21;22.88;;;9.68;;
7795;SDS011;3942;51.518;6.912;2022-12-07T09:29:23;13.35;;;8.50;;
7795;SDS011;3942;51.518;6.912;2022-12-07T09:34:26;33.33;;;14.88;;
7795;SDS011;3942;51.518;6.912;2022-12-07T09:39:28;22.63;;;12.98;;
7795;SDS011;3942;51.518;6.912;2022-12-07T09:44:30;16.13;;;7.82;;
7795;SDS011;3942;51.518;6.912;2022-12-07T09:49:34;16.45;;;7.72;;
7795;SDS011;3942;51.518;6.912;2022-12-07T09:54:36;14.73;;;7.50;;
7795;SDS011;3942;51.518;6.912;2022-12-07T09:59:42;12.52;;;7.65;;
7795;SDS011;3942;51.518;6.912;2022-12-07T10:04:46;22.20;;;8.45;;
7795;SDS011;3942;51.518;6.912;2022-12-07T10:09:48;17.40;;;8.18;;
7795;SDS011;3942;51.518;6.912;2022-12-07T10:14:54;52.50;;;32.20;;
7795;SDS011;3942;51.518;6.912;2022-12-07T10:25:19;29.75;;;14.02;;
7795;SDS011;3942;51.518;6.912;2022-12-07T10:30:21;22.17;;;10.32;;
7795;SDS011;3942;51.518;6.912;2022-12-07T10:35:25;17.38;;;7.38;;
7795;SDS011;3942;51.518;6.912;2022-12-07T10:40:30;16.90;;;8.45;;
7795;SDS011;3942;51.518;6.912;2022-12-07T10:45:34;23.77;;;12.45;;
7795;SDS011;3942;51.518;6.912;2022-12-07T10:50:49;16.75;;;9.15;;
7795;SDS011;3942;51.518;6.912;2022-12-07T10:56:09;24.92;;;10.07;;
7795;SDS011;3942;51.518;6.912;2022-12-07T11:01:18;13.85;;;6.88;;
7795;SDS011;3942;51.518;6.912;2022-12-07T11:06:29;17.30;;;7.60;;
7795;SDS011;3942;51.518;6.912;2022-12-07T11:11:33;22.27;;;8.50;;
7795;SDS011;3942;51.518;6.912;2022-12-07T11:16:48;20.67;;;7.68;;
7795;SDS011;3942;51.518;6.912;2022-12-07T11:21:55;22.75;;;10.55;;
7795;SDS011;3942;51.518;6.912;2022-12-07T11:27:01;37.28;;;13.15;;
7795;SDS011;3942;51.518;6.912;2022-12-07T11:32:09;39.22;;;12.68;;
7795;SDS011;3942;51.518;6.912;2022-12-07T11:37:18;25.65;;;10.30;;
7795;SDS011;3942;51.518;6.912;2022-12-07T11:42:22;16.08;;;4.70;;
7795;SDS011;3942;51.518;6.912;2022-12-07T11:47:28;16.38;;;5.07;;
7795;SDS011;3942;51.518;6.912;2022-12-07T11:52:36;11.60;;;7.05;;
7795;SDS011;3942;51.518;6.912;2022-12-07T11:57:43;20.45;;;5.82;;
7795;SDS011;3942;51.518;6.912;2022-12-07T12:02:48;19.73;;;7.97;;
7795;SDS011;3942;51.518;6.912;2022-12-07T12:07:57;14.68;;;4.32;;
7795;SDS011;3942;51.518;6.912;2022-12-07T12:18:23;40.17;;;15.85;;
7795;SDS011;3942;51.518;6.912;2022-12-07T12:23:33;35.38;;;13.10;;
7795;SDS011;3942;51.518;6.912;2022-12-07T12:28:38;28.65;;;13.82;;
7795;SDS011;3942;51.518;6.912;2022-12-07T12:33:44;23.08;;;7.72;;
7795;SDS011;3942;51.518;6.912;2022-12-07T12:38:50;12.32;;;5.30;;
7795;SDS011;3942;51.518;6.912;2022-12-07T12:43:53;22.63;;;7.80;;
7795;SDS011;3942;51.518;6.912;2022-12-07T12:48:55;21.08;;;7.60;;
7795;SDS011;3942;51.518;6.912;2022-12-07T12:54:04;9.85;;;5.07;;
7795;SDS011;3942;51.518;6.912;2022-12-07T12:59:21;14.80;;;4.97;;
7795;SDS011;3942;51.518;6.912;2022-12-07T13:09:54;11.27;;;5.70;;
7795;SDS011;3942;51.518;6.912;2022-12-07T13:14:56;17.48;;;7.00;;
7795;SDS011;3942;51.518;6.912;2022-12-07T13:19:59;19.33;;;7.13;;
7795;SDS011;3942;51.518;6.912;2022-12-07T13:25:05;14.10;;;6.18;;
7795;SDS011;3942;51.518;6.912;2022-12-07T13:30:14;16.52;;;5.75;;
7795;SDS011;3942;51.518;6.912;2022-12-07T13:35:31;18.75;;;7.13;;
7795;SDS011;3942;51.518;6.912;2022-12-07T13:40:36;19.48;;;7.20;;
7795;SDS011;3942;51.518;6.912;2022-12-07T13:45:39;11.65;;;5.07;;
7795;SDS011;3942;51.518;6.912;2022-12-07T13:50:53;15.43;;;5.18;;
7795;SDS011;3942;51.518;6.912;2022-12-07T13:55:57;15.25;;;6.88;;
7795;SDS011;3942;51.518;6.912;2022-12-07T14:01:01;15.25;;;5.40;;
7795;SDS011;3942;51.518;6.912;2022-12-07T14:06:25;8.93;;;4.32;;
7795;SDS011;3942;51.518;6.912;2022-12-07T14:11:29;8.75;;;4.93;;
7795;SDS011;3942;51.518;6.912;2022-12-07T14:16:32;11.23;;;4.53;;
7795;SDS011;3942;51.518;6.912;2022-12-07T14:21:35;9.35;;;4.15;;
7795;SDS011;3942;51.518;6.912;2022-12-07T14:26:38;23.33;;;9.38;;
7795;SDS011;3942;51.518;6.912;2022-12-07T14:31:41;26.50;;;9.18;;
7795;SDS011;3942;51.518;6.912;2022-12-07T14:36:43;11.05;;;4.68;;
7795;SDS011;3942;51.518;6.912;2022-12-07T14:41:46;7.35;;;3.42;;
7795;SDS011;3942;51.518;6.912;2022-12-07T14:46:51;15.00;;;4.05;;
7795;SDS011;3942;51.518;6.912;2022-12-07T14:51:53;10.50;;;3.10;;
7795;SDS011;3942;51.518;6.912;2022-12-07T14:56:57;8.98;;;3.42;;
7795;SDS011;3942;51.518;6.912;2022-12-07T15:01:59;11.25;;;3.92;;
7795;SDS011;3942;51.518;6.912;2022-12-07T15:07:02;12.48;;;4.68;;
7795;SDS011;3942;51.518;6.912;2022-12-07T15:12:06;13.40;;;4.47;;
7795;SDS011;3942;51.518;6.912;2022-12-07T15:17:09;11.48;;;3.67;;
7795;SDS011;3942;51.518;6.912;2022-12-07T15:22:12;16.30;;;4.15;;
7795;SDS011;3942;51.518;6.912;2022-12-07T15:27:16;17.15;;;8.70;;
7795;SDS011;3942;51.518;6.912;2022-12-07T15:32:18;15.43;;;4.78;;
7795;SDS011;3942;51.518;6.912;2022-12-07T15:37:20;13.98;;;4.40;;
7795;SDS011;3942;51.518;6.912;2022-12-07T15:42:23;14.55;;;4.60;;
7795;SDS011;3942;51.518;6.912;2022-12-07T15:47:26;6.40;;;3.80;;
7795;SDS011;3942;51.518;6.912;2022-12-07T15:52:28;12.38;;;5.18;;
7795;SDS011;3942;51.518;6.912;2022-12-07T15:57:31;14.63;;;5.20;;
7795;SDS011;3942;51.518;6.912;2022-12-07T16:02:34;11.90;;;5.18;;
7795;SDS011;3942;51.518;6.912;2022-12-07T16:07:37;9.85;;;4.40;;
7795;SDS011;3942;51.518;6.912;2022-12-07T16:12:40;9.70;;;3.80;;
7795;SDS011;3942;51.518;6.912;2022-12-07T16:17:43;11.57;;;5.55;;
7795;SDS011;3942;51.518;6.912;2022-12-07T16:22:44;13.90;;;5.47;;
7795;SDS011;3942;51.518;6.912;2022-12-07T16:27:48;12.18;;;4.72;;
7795;SDS011;3942;51.518;6.912;2022-12-07T16:32:50;16.95;;;5.95;;
7795;SDS011;3942;51.518;6.912;2022-12-07T16:37:52;14.45;;;4.53;;
7795;SDS011;3942;51.518;6.912;2022-12-07T16:42:55;7.30;;;4.03;;
7795;SDS011;3942;51.518;6.912;2022-12-07T16:47:57;10.32;;;4.97;;
7795;SDS011;3942;51.518;6.912;2022-12-07T16:52:59;11.25;;;4.10;;
7795;SDS011;3942;51.518;6.912;2022-12-07T16:58:03;8.35;;;3.97;;
7795;SDS011;3942;51.518;6.912;2022-12-07T17:03:05;12.98;;;5.13;;
7795;SDS011;3942;51.518;6.912;2022-12-07T17:08:07;7.85;;;3.85;;
7795;SDS011;3942;51.518;6.912;2022-12-07T17:13:11;10.57;;;3.97;;
7795;SDS011;3942;51.518;6.912;2022-12-07T17:18:32;7.97;;;3.95;;
7795;SDS011;3942;51.518;6.912;2022-12-07T17:23:34;12.77;;;4.45;;
7795;SDS011;3942;51.518;6.912;2022-12-07T17:28:38;11.57;;;4.18;;
7795;SDS011;3942;51.518;6.912;2022-12-07T17:33:40;10.57;;;5.20;;
7795;SDS011;3942;51.518;6.912;2022-12-07T17:38:43;10.48;;;3.85;;
7795;SDS011;3942;51.518;6.912;2022-12-07T17:43:46;16.50;;;5.63;;
7795;SDS011;3942;51.518;6.912;2022-12-07T17:48:49;8.98;;;3.47;;
7795;SDS011;3942;51.518;6.912;2022-12-07T17:53:51;10.38;;;3.45;;
7795;SDS011;3942;51.518;6.912;2022-12-07T17:58:54;6.15;;;3.45;;
7795;SDS011;3942;51.518;6.912;2022-12-07T18:03:56;13.98;;;4.30;;
7795;SDS011;3942;51.518;6.912;2022-12-07T18:08:58;8.98;;;4.25;;
7795;SDS011;3942;51.518;6.912;2022-12-07T18:14:02;8.48;;;3.90;;
7795;SDS011;3942;51.518;6.912;2022-12-07T18:19:05;7.93;;;3.60;;
7795;SDS011;3942;51.518;6.912;2022-12-07T18:24:09;6.38;;;4.40;;
7795;SDS011;3942;51.518;6.912;2022-12-07T18:29:14;6.95;;;4.65;;
7795;SDS011;3942;51.518;6.912;2022-12-07T18:34:17;13.82;;;6.75;;
7795;SDS011;3942;51.518;6.912;2022-12-07T18:39:19;14.38;;;5.07;;
7795;SDS011;3942;51.518;6.912;2022-12-07T18:44:23;13.88;;;5.72;;
7795;SDS011;3942;51.518;6.912;2022-12-07T18:49:25;11.50;;;5.28;;
7795;SDS011;3942;51.518;6.912;2022-12-07T18:54:27;10.80;;;5.90;;
7795;SDS011;3942;51.518;6.912;2022-12-07T18:59:30;11.88;;;5.47;;
7795;SDS011;3942;51.518;6.912;2022-12-07T19:04:48;11.68;;;6.05;;
7795;SDS011;3942;51.518;6.912;2022-12-07T19:09:51;14.75;;;8.05;;
7795;SDS011;3942;51.518;6.912;2022-12-07T19:14:54;10.95;;;7.05;;
7795;SDS011;3942;51.518;6.912;2022-12-07T19:19:56;13.30;;;7.28;;
7795;SDS011;3942;51.518;6.912;2022-12-07T19:24:58;15.88;;;8.15;;
7795;SDS011;3942;51.518;6.912;2022-12-07T19:30:02;11.75;;;7.35;;
7795;SDS011;3942;51.518;6.912;2022-12-07T19:35:04;11.30;;;7.68;;
7795;SDS011;3942;51.518;6.912;2022-12-07T19:40:07;16.30;;;8.38;;
7795;SDS011;3942;51.518;6.912;2022-12-07T19:45:11;20.83;;;9.85;;
7795;SDS011;3942;51.518;6.912;2022-12-07T19:50:13;20.95;;;9.43;;
7795;SDS011;3942;51.518;6.912;2022-12-07T19:55:15;18.90;;;9.52;;
7795;SDS011;3942;51.518;6.912;2022-12-07T20:00:19;28.42;;;15.75;;
7795;SDS011;3942;51.518;6.912;2022-12-07T20:05:21;21.75;;;10.55;;
7795;SDS011;3942;51.518;6.912;2022-12-07T20:10:24;27.80;;;11.30;;
7795;SDS011;3942;51.518;6.912;2022-12-07T20:15:27;23.15;;;11.40;;
7795;SDS011;3942;51.518;6.912;2022-12-07T20:20:29;19.25;;;12.52;;
7795;SDS011;3942;51.518;6.912;2022-12-07T20:25:33;19.58;;;11.60;;
7795;SDS011;3942;51.518;6.912;2022-12-07T20:30:40;21.60;;;12.32;;
7795;SDS011;3942;51.518;6.912;2022-12-07T20:35:46;46.10;;;26.15;;
7795;SDS011;3942;51.518;6.912;2022-12-07T20:40:48;47.38;;;27.38;;
7795;SDS011;3942;51.518;6.912;2022-12-07T20:45:52;20.60;;;12.98;;
7795;SDS011;3942;51.518;6.912;2022-12-07T20:51:03;21.38;;;11.98;;
7795;SDS011;3942;51.518;6.912;2022-12-07T20:56:06;35.50;;;19.40;;
7795;SDS011;3942;51.518;6.912;2022-12-07T21:01:09;27.63;;;11.65;;
7795;SDS011;3942;51.518;6.912;2022-12-07T21:06:12;21.45;;;11.43;;
7795;SDS011;3942;51.518;6.912;2022-12-07T21:11:15;28.02;;;16.83;;
7795;SDS011;3942;51.518;6.912;2022-12-07T21:16:20;24.05;;;13.27;;
7795;SDS011;3942;51.518;6.912;2022-12-07T21:21:23;18.75;;;10.02;;
7795;SDS011;3942;51.518;6.912;2022-12-07T21:26:25;20.92;;;11.80;;
7795;SDS011;3942;51.518;6.912;2022-12-07T21:31:29;19.58;;;11.60;;
7795;SDS011;3942;51.518;6.912;2022-12-07T21:36:31;20.83;;;12.57;;
7795;SDS011;3942;51.518;6.912;2022-12-07T21:41:34;22.85;;;12.95;;
7795;SDS011;3942;51.518;6.912;2022-12-07T21:46:37;24.48;;;13.95;;
7795;SDS011;3942;51.518;6.912;2022-12-07T21:51:40;24.88;;;13.70;;
7795;SDS011;3942;51.518;6.912;2022-12-07T21:56:43;23.27;;;13.85;;
7795;SDS011;3942;51.518;6.912;2022-12-07T22:01:46;22.45;;;13.30;;
7795;SDS011;3942;51.518;6.912;2022-12-07T22:06:49;26.52;;;14.75;;
7795;SDS011;3942;51.518;6.912;2022-12-07T22:11:52;22.00;;;13.68;;
7795;SDS011;3942;51.518;6.912;2022-12-07T22:16:55;22.30;;;13.82;;
7795;SDS011;3942;51.518;6.912;2022-12-07T22:21:57;21.63;;;12.23;;
7795;SDS011;3942;51.518;6.912;2022-12-07T22:26:59;23.85;;;11.95;;
7795;SDS011;3942;51.518;6.912;2022-12-07T22:32:03;18.20;;;10.85;;
7795;SDS011;3942;51.518;6.912;2022-12-07T22:37:05;19.95;;;11.20;;
7795;SDS011;3942;51.518;6.912;2022-12-07T22:42:07;20.70;;;11.45;;
7795;SDS011;3942;51.518;6.912;2022-12-07T22:47:13;14.40;;;9.55;;
7795;SDS011;3942;51.518;6.912;2022-12-07T22:52:15;16.27;;;8.65;;
7795;SDS011;3942;51.518;6.912;2022-12-07T22:57:17;18.10;;;9.43;;
7795;SDS011;3942;51.518;6.912;2022-12-07T23:02:20;17.55;;;9.32;;
7795;SDS011;3942;51.518;6.912;2022-12-07T23:07:23;14.90;;;8.48;;
7795;SDS011;3942;51.518;6.912;2022-12-07T23:12:24;13.07;;;8.90;;
7795;SDS011;3942;51.518;6.912;2022-12-07T23:17:45;17.08;;;10.50;;
7795;SDS011;3942;51.518;6.912;2022-12-07T23:22:48;19.58;;;11.23;;
7795;SDS011;3942;51.518;6.912;2022-12-07T23:27:50;20.55;;;12.25;;
7795;SDS011;3942;51.518;6.912;2022-12-07T23:32:53;21.25;;;13.45;;
7795;SDS011;3942;51.518;6.912;2022-12-07T23:37:55;30.23;;;13.73;;
7795;SDS011;3942;51.518;6.912;2022-12-07T23:42:57;21.17;;;14.20;;
7795;SDS011;3942;51.518;6.912;2022-12-07T23:48:00;22.77;;;14.13;;
7795;SDS011;3942;51.518;6.912;2022-12-07T23:53:02;25.52;;;15.27;;
7795;SDS011;3942;51.518;6.912;2022-12-07T23:58:05;28.73;;;16.30;;
